Campanya meteocatpedra

Dades EMA Benissanet

?
?
Resum diari
Dades diàries de l'estació meteorològica
Temperatura mitjana 9.7 °C
Temperatura màxima 16.6 °C 16:07 TU
Temperatura mínima 4.2 °C 2:31 TU
Humitat relativa mitjana 78%
Precipitació acumulada 2.8 mm
Ratxa màxima del vent (10 m) 21.6 km/h - 147º 17:35 TU
Irradiació solar global 13.9 MJ/m2

El tram horari està expressat en Temps Universal (TU). Cal sumar una hora en horari d'hivern i dues en horari d'estiu per passar a l'hora oficial.

Benissanet

Metadades estació meteorol´gica
Municipi Benissanet
Comarca Ribera d'Ebre
Altitud 32 m
Data alta 14.07.1993
Estat actual Operativa
Dades de període
Període
TU
TM
°C
TX
°C
TN
°C
HRM
%
PPT
mm
VVM (10 m)
km/h
DVM (10 m)
graus
VVX (10 m)
km/h
RS
W/m2
00:00 - 00:30 5.0 5.2 4.9 94 0.4 10.8 41 18.0 0
00:30 - 01:00 4.7 4.9 4.6 94 0.1 8.6 50 17.3 0
01:00 - 01:30 4.5 4.5 4.4 94 0.3 6.5 62 10.8 0
01:30 - 02:00 4.4 4.5 4.3 95 0.1 4.3 52 9.4 0
02:00 - 02:30 4.3 4.4 4.2 95 0.0 2.5 21 5.8 0
02:30 - 03:00 4.3 4.4 4.2 95 0.0 2.9 19 8.3 0
03:00 - 03:30 4.6 4.7 4.5 93 0.0 1.1 26 3.2 0
03:30 - 04:00 4.7 4.8 4.6 95 0.0 1.1 27 4.3 0
04:00 - 04:30 4.9 5.0 4.8 94 0.0 0.4 357 3.2 0
04:30 - 05:00 5.0 5.1 5.0 94 0.0 2.9 309 7.6 0
05:00 - 05:30 5.1 5.2 5.0 93 0.0 2.9 265 6.8 0
05:30 - 06:00 4.8 5.0 4.6 94 0.0 1.4 276 5.4 0
06:00 - 06:30 4.6 4.9 4.4 96 0.0 2.5 77 5.4 16
06:30 - 07:00 5.0 5.2 4.9 97 0.0 1.1 45 2.9 53
07:00 - 07:30 5.4 5.6 5.2 94 0.0 1.8 144 6.1 112
07:30 - 08:00 6.3 6.9 5.7 92 0.0 1.8 339 5.8 225
08:00 - 08:30 7.2 7.9 6.7 87 0.0 4.3 32 9.7 352
08:30 - 09:00 8.7 9.5 7.9 82 0.0 4.3 2 11.2 527
09:00 - 09:30 10.3 11.1 9.4 77 0.0 6.1 329 11.2 559
09:30 - 10:00 11.1 11.6 10.8 71 0.0 6.5 326 13.0 477
10:00 - 10:30 12.2 13.0 11.7 68 0.0 6.1 323 12.6 646
10:30 - 11:00 13.3 13.7 12.7 64 0.0 5.8 329 11.5 637
11:00 - 11:30 13.0 13.4 12.3 64 0.2 3.2 288 7.9 180
11:30 - 12:00 12.2 13.4 11.5 78 1.2 6.1 310 10.8 323
12:00 - 12:30 13.5 13.6 13.4 64 0.0 3.2 60 8.6 343
12:30 - 13:00 13.2 13.5 12.6 64 0.1 6.1 204 20.2 90
13:00 - 13:30 12.0 12.7 11.5 66 0.4 6.5 35 18.0 270
13:30 - 14:00 13.0 13.4 12.8 58 0.0 3.6 58 11.2 323
14:00 - 14:30 13.7 14.0 13.4 54 0.0 4.0 182 13.3 429
14:30 - 15:00 14.4 14.7 13.7 56 0.0 5.0 16 10.8 523
15:00 - 15:30 15.1 15.6 14.5 52 0.0 6.1 25 12.6 535
15:30 - 16:00 15.8 16.5 15.2 50 0.0 5.4 0 11.2 508
16:00 - 16:30 15.9 16.6 15.2 50 0.0 7.9 138 20.9 378
16:30 - 17:00 15.1 15.6 14.6 53 0.0 9.4 132 20.9 165
17:00 - 17:30 14.3 14.5 14.1 57 0.0 9.4 150 19.4 70
17:30 - 18:00 13.7 14.0 13.3 58 0.0 8.6 134 21.6 27
18:00 - 18:30 13.2 13.3 13.1 64 0.0 8.6 118 16.6 2
18:30 - 19:00 13.0 13.1 12.9 67 0.0 6.8 128 18.7 0
19:00 - 19:30 12.7 12.9 12.5 71 0.0 6.8 128 16.2 0
19:30 - 20:00 12.3 12.6 11.4 75 0.0 4.7 156 11.2 0
20:00 - 20:30 10.9 11.3 10.3 82 0.0 5.0 316 9.4 0
20:30 - 21:00 10.1 10.4 9.5 84 0.0 6.1 318 9.7 0
21:00 - 21:30 9.3 9.5 9.2 87 0.0 4.3 302 8.6 0
21:30 - 22:00 9.2 9.2 9.1 90 0.0 5.0 348 9.7 0
22:00 - 22:30 9.4 9.5 9.1 89 0.0 4.7 323 9.7 0
22:30 - 23:00 9.6 9.7 9.4 87 0.0 2.9 273 7.2 0
23:00 - 23:30 (s/d) (s/d) (s/d) (s/d) (s/d) (s/d) (s/d) (s/d) (s/d)

Les dades en taronja només han passat un control de qualitat automàtic. Resta pendent la seva validació definitiva.